Time;durP1;ratioP1;P1;durP2;ratioP2;P2;SDS_P1;SDS_P2;PMS_P1;PMS_P2;Temp;Humidity;BMP_temperature;BMP_pressure;BME280_temperature;BME280_humidity;BME280_pressure;Samples;Min_cycle;Max_cycle;Signal;HPM_P1;HPM_P2
2023/08/16 00:01:57;;;;;;;6.65;2.83;;;16.60;99.90;;;;;;5039619;28;20205;-67
2023/08/16 00:04:24;;;;;;;3.35;2.70;;;16.60;99.90;;;;;;5039581;28;20204;-67
2023/08/16 00:06:51;;;;;;;2.65;2.45;;;16.60;99.90;;;;;;5046470;28;20254;-67
2023/08/16 00:09:18;;;;;;;2.83;2.53;;;16.60;99.90;;;;;;5007942;28;20209;-67
2023/08/16 00:11:46;;;;;;;4.22;2.92;;;16.60;99.90;;;;;;5031503;28;20201;-67
2023/08/16 00:14:14;;;;;;;3.03;2.67;;;16.60;99.90;;;;;;5042668;28;20196;-67
2023/08/16 00:16:41;;;;;;;3.30;2.55;;;16.60;99.90;;;;;;5043708;28;20197;-67
2023/08/16 00:19:08;;;;;;;2.45;2.25;;;16.60;99.90;;;;;;5043947;28;20201;-67
2023/08/16 00:21:34;;;;;;;4.35;2.50;;;16.60;99.90;;;;;;5044536;28;20273;-66
2023/08/16 00:24:01;;;;;;;3.45;2.65;;;16.60;99.90;;;;;;5007318;28;20220;-66
2023/08/16 00:26:28;;;;;;;3.92;2.30;;;16.60;99.90;;;;;;5031400;28;20699;-67
2023/08/16 00:28:56;;;;;;;4.63;2.67;;;16.50;99.90;;;;;;5040950;28;20197;-67
2023/08/16 00:31:23;;;;;;;4.70;2.25;;;16.40;99.90;;;;;;5040536;28;20213;-67
2023/08/16 00:33:50;;;;;;;2.30;2.10;;;16.40;99.90;;;;;;5047533;28;20201;-67
2023/08/16 00:36:17;;;;;;;3.58;2.50;;;16.40;99.90;;;;;;5039805;28;20200;-67
2023/08/16 00:38:44;;;;;;;3.40;2.30;;;16.40;99.90;;;;;;5020071;28;20228;-67
2023/08/16 00:41:11;;;;;;;3.85;2.40;;;16.40;99.90;;;;;;5028511;28;20291;-67
2023/08/16 00:43:37;;;;;;;3.33;2.25;;;16.40;99.90;;;;;;5043376;28;20197;-67
2023/08/16 00:46:07;;;;;;;6.70;2.42;;;16.40;99.90;;;;;;5041054;28;20220;-67
2023/08/16 00:48:37;;;;;;;2.70;2.25;;;16.40;99.90;;;;;;5038881;28;20201;-67
2023/08/16 00:51:04;;;;;;;3.50;2.20;;;16.50;99.90;;;;;;5035872;28;20203;-67
2023/08/16 00:53:32;;;;;;;4.30;2.20;;;16.40;99.90;;;;;;5045028;28;20278;-67
2023/08/16 00:55:59;;;;;;;1.92;1.70;;;16.40;99.90;;;;;;5015463;28;20211;-66
2023/08/16 00:58:27;;;;;;;2.17;1.98;;;16.40;99.90;;;;;;5037309;28;20255;-66
2023/08/16 01:00:53;;;;;;;1.83;1.73;;;16.10;99.90;;;;;;5039310;28;20918;-66
2023/08/16 01:03:22;;;;;;;5.15;1.98;;;15.70;99.90;;;;;;5041166;28;20559;-66
2023/08/16 01:05:48;;;;;;;2.47;1.55;;;15.90;99.90;;;;;;5042801;28;20224;-67
2023/08/16 01:08:16;;;;;;;2.50;1.80;;;15.70;99.90;;;;;;5041248;28;20207;-66
2023/08/16 01:10:50;;;;;;;6.93;2.05;;;15.80;99.90;;;;;;5014263;28;20211;-67
2023/08/16 01:13:24;;;;;;;3.00;2.05;;;15.80;99.90;;;;;;5027682;28;20672;-66
2023/08/16 01:15:53;;;;;;;3.17;2.22;;;15.80;99.90;;;;;;5045893;28;20668;-66
2023/08/16 01:18:22;;;;;;;2.30;1.90;;;15.80;99.90;;;;;;5040451;28;20193;-66
2023/08/16 01:20:50;;;;;;;6.82;2.20;;;15.70;99.90;;;;;;5042021;28;20894;-66
2023/08/16 01:23:28;;;;;;;4.28;2.30;;;15.60;99.90;;;;;;5039367;28;20696;-66
2023/08/16 01:26:06;;;;;;;2.95;2.60;;;15.60;99.90;;;;;;5015790;28;20707;-66
2023/08/16 01:28:35;;;;;;;3.13;2.22;;;15.40;99.90;;;;;;5024620;28;20208;-66
2023/08/16 01:31:04;;;;;;;2.67;1.98;;;15.60;99.90;;;;;;5039651;28;20223;-66
2023/08/16 01:33:31;;;;;;;6.72;2.47;;;15.60;99.90;;;;;;5039226;28;20204;-66
2023/08/16 01:35:58;;;;;;;8.00;2.47;;;;;;;;;;5039854;28;20207;-66
2023/08/16 01:38:26;;;;;;;9.57;2.30;;;15.90;99.90;;;;;;5043215;28;20201;-66
2023/08/16 01:40:59;;;;;;;6.03;2.40;;;15.70;99.90;;;;;;5015660;28;20741;-66
2023/08/16 01:43:26;;;;;;;5.07;3.10;;;16.40;99.90;;;;;;5033904;28;20200;-66
2023/08/16 01:45:55;;;;;;;9.35;2.92;;;15.80;99.90;;;;;;5041622;28;20757;-66
2023/08/16 01:48:24;;;;;;;5.70;2.70;;;16.00;99.90;;;;;;5028843;28;20235;-67
2023/08/16 01:50:51;;;;;;;6.43;2.60;;;15.90;99.90;;;;;;5042047;28;20201;-66
2023/08/16 01:53:18;;;;;;;4.82;2.50;;;15.90;99.90;;;;;;5044374;28;20196;-66
2023/08/16 01:55:45;;;;;;;4.53;2.42;;;16.00;99.90;;;;;;5049777;28;20332;-66
2023/08/16 01:58:11;;;;;;;9.30;2.72;;;15.10;99.90;;;;;;5007625;28;20240;-67
2023/08/16 02:00:38;;;;;;;2.95;2.22;;;15.80;99.90;;;;;;5045555;28;20207;-66
2023/08/16 02:03:06;;;;;;;6.85;3.30;;;15.70;99.90;;;;;;5038947;28;20203;-66
2023/08/16 02:05:34;;;;;;;6.00;2.78;;;15.60;99.90;;;;;;5040192;28;20240;-66
2023/08/16 02:08:00;;;;;;;4.65;3.20;;;15.60;99.90;;;;;;5043657;28;20221;-66
2023/08/16 02:10:27;;;;;;;6.25;3.58;;;15.60;99.90;;;;;;5047563;28;20209;-66
2023/08/16 02:12:54;;;;;;;15.43;3.58;;;15.70;99.90;;;;;;5015996;28;20209;-66
2023/08/16 02:15:21;;;;;;;5.30;3.17;;;15.80;99.90;;;;;;5030489;28;20224;-67
2023/08/16 02:17:48;;;;;;;6.32;3.30;;;15.80;99.90;;;;;;5039584;28;20197;-66
2023/08/16 02:20:16;;;;;;;6.28;3.35;;;15.90;99.90;;;;;;5039570;28;20210;-67
2023/08/16 02:22:43;;;;;;;6.57;3.28;;;15.90;99.90;;;;;;5047376;28;20202;-66
2023/08/16 02:25:10;;;;;;;9.75;3.63;;;16.00;99.90;;;;;;5040686;28;20197;-67
2023/08/16 02:27:37;;;;;;;9.30;3.33;;;16.00;99.90;;;;;;5040424;28;20236;-66
2023/08/16 02:30:05;;;;;;;7.53;3.53;;;16.00;99.90;;;;;;5008098;28;20216;-66
2023/08/16 02:32:33;;;;;;;8.85;3.13;;;16.00;99.90;;;;;;5032607;28;20694;-67
2023/08/16 02:35:00;;;;;;;6.03;3.00;;;16.10;99.90;;;;;;5040074;28;20205;-66
2023/08/16 02:37:30;;;;;;;3.95;2.67;;;16.00;99.90;;;;;;5043992;28;20465;-67
2023/08/16 02:39:57;;;;;;;5.88;2.92;;;16.00;99.90;;;;;;5044676;28;20197;-66
2023/08/16 02:42:24;;;;;;;8.77;2.88;;;15.90;99.90;;;;;;5041400;28;21404;-66
2023/08/16 02:44:50;;;;;;;6.22;2.85;;;15.90;99.90;;;;;;5019066;28;20209;-66
2023/08/16 02:47:17;;;;;;;6.75;3.20;;;16.00;99.90;;;;;;5028105;28;20225;-66
2023/08/16 02:49:44;;;;;;;6.25;2.78;;;16.00;99.90;;;;;;5036432;28;20209;-67
2023/08/16 02:52:12;;;;;;;7.22;2.85;;;15.70;99.90;;;;;;5046179;28;20201;-67
2023/08/16 02:54:40;;;;;;;10.70;2.92;;;15.70;99.90;;;;;;5047323;28;20203;-66
2023/08/16 02:57:07;;;;;;;6.25;2.72;;;15.50;99.90;;;;;;5042450;28;20741;-66
2023/08/16 02:59:40;;;;;;;3.45;2.60;;;15.30;99.90;;;;;;5043428;28;20203;-66
2023/08/16 03:02:06;;;;;;;2.50;2.13;;;15.10;99.90;;;;;;5004453;28;20201;-67
2023/08/16 03:04:33;;;;;;;3.78;2.53;;;15.00;99.90;;;;;;5033838;28;20211;-66
2023/08/16 03:07:00;;;;;;;3.47;2.35;;;14.90;99.90;;;;;;5044445;28;20224;-67
2023/08/16 03:09:27;;;;;;;3.95;2.60;;;14.80;99.90;;;;;;5043824;28;20420;-66
2023/08/16 03:11:55;;;;;;;6.45;2.70;;;14.70;99.90;;;;;;5044589;28;20204;-66
2023/08/16 03:14:22;;;;;;;3.13;2.50;;;14.60;99.90;;;;;;5042713;28;20214;-66
2023/08/16 03:16:48;;;;;;;5.18;2.40;;;14.60;99.90;;;;;;5013790;28;20586;-66
2023/08/16 03:19:16;;;;;;;2.65;2.22;;;14.70;99.90;;;;;;5023352;28;20212;-66
2023/08/16 03:21:42;;;;;;;2.00;1.88;;;14.70;99.90;;;;;;5042105;28;20196;-66
2023/08/16 03:24:09;;;;;;;3.85;2.00;;;14.90;99.90;;;;;;5037986;28;21156;-66
2023/08/16 03:26:36;;;;;;;4.63;2.10;;;14.90;99.90;;;;;;5044827;28;20193;-66
2023/08/16 03:29:05;;;;;;;2.17;1.77;;;15.00;99.90;;;;;;5044962;28;20205;-66
2023/08/16 03:31:32;;;;;;;1.63;1.52;;;15.00;99.90;;;;;;5017691;28;20605;-67
2023/08/16 03:33:59;;;;;;;1.65;1.50;;;14.90;99.90;;;;;;5012056;28;20221;-66
2023/08/16 03:36:25;;;;;;;1.70;1.60;;;14.70;99.90;;;;;;5041250;28;20681;-66
2023/08/16 03:38:52;;;;;;;2.70;1.98;;;14.70;99.90;;;;;;5042288;28;20201;-66
2023/08/16 03:41:19;;;;;;;3.10;1.77;;;14.50;99.90;;;;;;5045436;28;20285;-66
2023/08/16 03:43:46;;;;;;;2.53;1.70;;;14.50;99.90;;;;;;5046639;28;20194;-66
2023/08/16 03:46:14;;;;;;;1.98;1.70;;;14.50;99.90;;;;;;5044022;28;21182;-66
2023/08/16 03:48:41;;;;;;;2.13;1.92;;;14.50;99.90;;;;;;5003056;28;20225;-66
2023/08/16 03:51:07;;;;;;;10.52;1.85;;;14.70;99.90;;;;;;5031663;28;20209;-66
2023/08/16 03:53:34;;;;;;;6.25;2.05;;;14.50;99.90;;;;;;5047889;28;20197;-66
2023/08/16 03:56:01;;;;;;;5.13;2.47;;;14.50;99.90;;;;;;5035434;28;20216;-66
2023/08/16 03:58:28;;;;;;;4.50;2.38;;;14.60;99.90;;;;;;5042778;28;20197;-66
2023/08/16 04:00:55;;;;;;;6.05;2.20;;;14.60;99.90;;;;;;5043596;28;20204;-66
2023/08/16 04:03:24;;;;;;;3.10;2.55;;;14.60;99.90;;;;;;4993712;28;20239;-66
2023/08/16 04:05:50;;;;;;;4.65;2.65;;;14.50;99.90;;;;;;5044413;28;20196;-66
2023/08/16 04:08:17;;;;;;;8.05;2.70;;;14.40;99.90;;;;;;5029889;28;20723;-66
2023/08/16 04:10:44;;;;;;;7.68;2.45;;;14.50;99.90;;;;;;5045670;28;20224;-66
2023/08/16 04:13:11;;;;;;;3.47;2.58;;;14.60;99.90;;;;;;5042477;28;20204;-66
2023/08/16 04:15:38;;;;;;;3.58;2.40;;;14.50;99.90;;;;;;5043848;28;20234;-66
2023/08/16 04:18:05;;;;;;;2.50;2.30;;;14.50;99.90;;;;;;5020137;28;20228;-66
2023/08/16 04:20:33;;;;;;;6.28;2.20;;;14.40;99.90;;;;;;5021389;28;20807;-66
2023/08/16 04:23:00;;;;;;;2.20;1.85;;;14.50;99.90;;;;;;5019478;28;20296;-66
2023/08/16 04:25:27;;;;;;;3.55;2.40;;;14.50;99.90;;;;;;5027765;28;20221;-66
2023/08/16 04:27:54;;;;;;;7.85;2.10;;;14.60;99.90;;;;;;5026977;28;20236;-66
2023/08/16 04:30:20;;;;;;;5.65;2.65;;;14.60;99.90;;;;;;5037782;28;20212;-66
2023/08/16 04:32:47;;;;;;;4.70;2.55;;;14.60;99.90;;;;;;5029009;28;20221;-66
2023/08/16 04:35:14;;;;;;;7.18;2.50;;;14.60;99.90;;;;;;5001157;28;20220;-66
2023/08/16 04:37:42;;;;;;;4.97;2.58;;;14.20;99.90;;;;;;5026554;28;20223;-66
2023/08/16 04:40:10;;;;;;;2.33;2.10;;;14.40;99.90;;;;;;5039442;28;20667;-66
2023/08/16 04:42:37;;;;;;;2.33;2.03;;;14.30;99.90;;;;;;5020715;28;20365;-66
2023/08/16 04:45:05;;;;;;;3.92;2.45;;;14.30;99.90;;;;;;5031742;28;20978;-66
2023/08/16 04:47:32;;;;;;;7.22;3.50;;;13.90;99.90;;;;;;5027160;28;20307;-66
2023/08/16 04:49:59;;;;;;;4.53;3.42;;;14.20;99.90;;;;;;5003286;28;20690;-66
2023/08/16 04:52:26;;;;;;;4.25;3.40;;;14.20;99.90;;;;;;5022349;28;20283;-66
2023/08/16 04:54:54;;;;;;;4.97;3.50;;;14.20;99.90;;;;;;5030175;28;20201;-66
2023/08/16 04:57:21;;;;;;;7.43;3.53;;;14.20;99.90;;;;;;5041790;28;20279;-66
2023/08/16 04:59:48;;;;;;;3.22;2.83;;;13.10;99.90;;;;;;5025180;28;20239;-66
2023/08/16 05:02:15;;;;;;;4.10;3.33;;;14.20;99.90;;;;;;5043028;28;20198;-66
2023/08/16 05:04:42;;;;;;;3.05;2.75;;;14.30;99.90;;;;;;5013579;28;20212;-66
2023/08/16 05:07:08;;;;;;;4.10;2.97;;;14.30;99.90;;;;;;5030439;28;20547;-66
2023/08/16 05:09:36;;;;;;;4.00;3.47;;;;;;;;;;5027924;28;20210;-66
2023/08/16 05:12:05;;;;;;;5.25;3.70;;;14.50;99.90;;;;;;5036727;28;20204;-66
2023/08/16 05:14:32;;;;;;;9.25;3.78;;;14.60;99.90;;;;;;5035735;28;20208;-66
2023/08/16 05:16:59;;;;;;;9.85;3.90;;;14.60;99.90;;;;;;5022270;28;20339;-66
2023/08/16 05:19:25;;;;;;;11.18;4.10;;;14.70;99.90;;;;;;5027294;28;20208;-66
2023/08/16 05:21:52;;;;;;;7.70;3.70;;;14.90;99.90;;;;;;4999826;28;20208;-67
2023/08/16 05:24:19;;;;;;;6.07;3.83;;;14.70;99.90;;;;;;5036638;28;20978;-66
2023/08/16 05:26:46;;;;;;;10.93;4.05;;;14.60;99.90;;;;;;5025988;28;20857;-67
2023/08/16 05:29:14;;;;;;;9.57;4.10;;;14.60;99.90;;;;;;5033410;28;20311;-66
2023/08/16 05:31:41;;;;;;;4.30;3.65;;;14.70;99.90;;;;;;5024634;28;20244;-66
2023/08/16 05:34:08;;;;;;;6.88;3.40;;;14.70;99.90;;;;;;5038633;28;20791;-66
2023/08/16 05:36:46;;;;;;;3.35;3.05;;;14.80;99.90;;;;;;5015271;28;20696;-66
2023/08/16 05:39:13;;;;;;;5.65;2.80;;;14.90;99.90;;;;;;5040199;28;20203;-66
2023/08/16 05:41:39;;;;;;;3.03;2.33;;;15.00;99.90;;;;;;5026621;28;20208;-66
2023/08/16 05:44:06;;;;;;;5.50;2.80;;;14.90;99.90;;;;;;5042392;28;20220;-66
2023/08/16 05:46:35;;;;;;;4.20;3.42;;;15.10;99.90;;;;;;5030744;28;20192;-67
2023/08/16 05:49:01;;;;;;;3.80;3.50;;;15.10;99.90;;;;;;5039582;28;20310;-66
2023/08/16 05:51:28;;;;;;;3.50;3.17;;;15.20;99.90;;;;;;5033765;28;20204;-67
2023/08/16 05:53:55;;;;;;;4.25;3.60;;;15.30;99.90;;;;;;5023123;28;20303;-66
2023/08/16 05:56:22;;;;;;;6.10;4.30;;;15.50;99.90;;;;;;5033883;28;20220;-66
2023/08/16 05:58:48;;;;;;;6.05;4.53;;;15.50;99.90;;;;;;5040787;28;20949;-66
2023/08/16 06:01:15;;;;;;;7.47;4.78;;;15.60;99.90;;;;;;5032507;28;20692;-66
2023/08/16 06:03:43;;;;;;;6.32;4.93;;;15.70;99.90;;;;;;5037040;28;20192;-67
2023/08/16 06:06:10;;;;;;;9.35;6.68;;;15.80;99.90;;;;;;5046886;28;20205;-67
2023/08/16 06:08:37;;;;;;;8.45;6.47;;;15.90;99.90;;;;;;5014873;28;20232;-66
2023/08/16 06:11:05;;;;;;;9.15;6.40;;;16.00;99.90;;;;;;5045348;28;20212;-66
2023/08/16 06:13:32;;;;;;;9.30;5.78;;;16.00;99.90;;;;;;5028532;28;20211;-67
2023/08/16 06:15:59;;;;;;;7.57;5.68;;;16.00;99.90;;;;;;5040271;28;20197;-67
2023/08/16 06:18:25;;;;;;;6.68;5.72;;;16.20;99.90;;;;;;5035710;28;20772;-67
2023/08/16 06:20:54;;;;;;;8.45;5.78;;;16.20;99.90;;;;;;5038754;28;20489;-67
2023/08/16 06:23:20;;;;;;;7.40;5.95;;;16.30;99.90;;;;;;5010947;28;20210;-67
2023/08/16 06:25:47;;;;;;;8.00;5.97;;;16.30;99.90;;;;;;5039204;28;20414;-67
2023/08/16 06:28:14;;;;;;;7.50;5.43;;;16.60;99.90;;;;;;5028547;28;20855;-67
2023/08/16 06:30:42;;;;;;;10.00;6.43;;;16.50;99.90;;;;;;5031603;28;20809;-67
2023/08/16 06:33:08;;;;;;;10.43;6.25;;;16.60;99.90;;;;;;5035321;28;20229;-67
2023/08/16 06:35:35;;;;;;;8.93;6.85;;;16.60;99.90;;;;;;5044469;28;20212;-67
2023/08/16 06:38:04;;;;;;;7.43;5.85;;;16.70;99.90;;;;;;5045333;28;20771;-67
2023/08/16 06:40:32;;;;;;;8.88;6.85;;;16.70;99.90;;;;;;5016086;28;20212;-67
2023/08/16 06:42:58;;;;;;;12.88;6.65;;;16.90;99.90;;;;;;5035274;28;21422;-67
2023/08/16 06:45:25;;;;;;;8.02;5.75;;;16.80;99.90;;;;;;5043418;28;20231;-67
2023/08/16 06:47:52;;;;;;;12.98;6.50;;;16.90;99.90;;;;;;5033389;28;20540;-67
2023/08/16 06:50:19;;;;;;;7.07;5.65;;;16.90;99.90;;;;;;5045580;28;20204;-67
2023/08/16 06:52:46;;;;;;;12.68;5.88;;;17.00;99.90;;;;;;5044740;28;20839;-67
2023/08/16 06:55:14;;;;;;;11.73;4.90;;;17.00;99.90;;;;;;5020921;28;20678;-67
2023/08/16 06:57:41;;;;;;;7.55;4.95;;;17.20;99.90;;;;;;5030668;28;20225;-67
2023/08/16 07:00:09;;;;;;;8.85;4.40;;;17.10;99.90;;;;;;5031908;28;20574;-67
2023/08/16 07:02:36;;;;;;;7.78;4.32;;;17.10;99.90;;;;;;5041915;28;20201;-67
2023/08/16 07:05:04;;;;;;;7.40;3.92;;;17.10;99.90;;;;;;5035159;28;20209;-67
2023/08/16 07:07:32;;;;;;;6.55;3.83;;;17.20;99.90;;;;;;5046309;28;20193;-67
2023/08/16 07:09:59;;;;;;;8.00;4.30;;;17.20;99.90;;;;;;5010984;28;20315;-67
2023/08/16 07:12:27;;;;;;;9.65;4.10;;;17.20;99.90;;;;;;5038952;28;20715;-67
2023/08/16 07:14:54;;;;;;;6.78;4.10;;;17.30;99.90;;;;;;5033837;28;20853;-67
2023/08/16 07:17:21;;;;;;;7.38;4.88;;;17.40;99.90;;;;;;5042132;28;20227;-67
2023/08/16 07:19:48;;;;;;;7.82;3.80;;;17.40;99.90;;;;;;5032722;28;20259;-67
2023/08/16 07:22:15;;;;;;;12.05;3.40;;;17.40;99.90;;;;;;5038423;28;20409;-67
2023/08/16 07:24:42;;;;;;;11.75;4.00;;;17.40;99.90;;;;;;5048709;28;20201;-67
2023/08/16 07:27:08;;;;;;;12.13;4.90;;;17.50;99.90;;;;;;5008263;28;20578;-67
2023/08/16 07:29:37;;;;;;;7.40;4.30;;;17.60;99.90;;;;;;5032423;28;20256;-66
2023/08/16 07:32:04;;;;;;;5.97;4.40;;;17.60;99.90;;;;;;5038017;28;24680;-67
2023/08/16 07:34:31;;;;;;;9.15;4.80;;;17.70;99.90;;;;;;5039643;28;20361;-67
2023/08/16 07:36:58;;;;;;;7.15;4.65;;;17.60;99.90;;;;;;5045816;28;20217;-67
2023/08/16 07:39:26;;;;;;;10.60;4.13;;;17.60;99.90;;;;;;5048873;28;20809;-67
2023/08/16 07:41:53;;;;;;;8.15;3.95;;;17.70;99.90;;;;;;5014255;28;20225;-67
2023/08/16 07:44:21;;;;;;;3.70;3.08;;;16.80;99.90;;;;;;5047028;28;20584;-67
2023/08/16 07:46:49;;;;;;;10.63;3.92;;;17.90;99.90;;;;;;5041189;28;20221;-67
2023/08/16 07:49:16;;;;;;;7.88;3.15;;;18.00;99.90;;;;;;5040912;28;20224;-67
2023/08/16 07:51:42;;;;;;;5.35;2.95;;;17.90;99.90;;;;;;5042585;28;20670;-67
2023/08/16 07:54:09;;;;;;;5.57;2.80;;;18.00;99.90;;;;;;5038043;28;20818;-67
2023/08/16 07:56:36;;;;;;;6.75;3.08;;;18.10;99.90;;;;;;5019324;28;21260;-67
2023/08/16 07:59:03;;;;;;;5.20;2.50;;;18.10;99.90;;;;;;5041197;28;20205;-67
2023/08/16 08:01:30;;;;;;;5.95;2.40;;;18.10;99.90;;;;;;5029328;28;20197;-67
2023/08/16 08:03:58;;;;;;;4.22;2.42;;;18.10;99.90;;;;;;5043113;28;20200;-67
2023/08/16 08:06:25;;;;;;;7.75;2.85;;;18.10;99.90;;;;;;5031497;28;20201;-67
2023/08/16 08:08:52;;;;;;;5.55;2.85;;;18.20;99.90;;;;;;5038000;28;21001;-67
2023/08/16 08:11:18;;;;;;;6.20;3.05;;;18.20;99.90;;;;;;5012800;28;20213;-67
2023/08/16 08:13:45;;;;;;;4.60;3.22;;;18.10;99.90;;;;;;5034479;28;20397;-67
2023/08/16 08:16:12;;;;;;;5.43;2.90;;;18.00;99.90;;;;;;5023518;28;20220;-67
2023/08/16 08:18:39;;;;;;;6.63;2.90;;;18.00;99.90;;;;;;5037393;28;20731;-67
2023/08/16 08:21:07;;;;;;;3.95;2.33;;;18.10;99.90;;;;;;5040042;28;20200;-67
2023/08/16 08:23:34;;;;;;;3.65;2.40;;;18.10;99.90;;;;;;5032943;28;20193;-67
2023/08/16 08:26:00;;;;;;;5.63;2.72;;;18.10;99.90;;;;;;5012970;28;20214;-67
2023/08/16 08:28:27;;;;;;;3.95;2.28;;;18.20;99.90;;;;;;5038524;28;20657;-67
2023/08/16 08:30:54;;;;;;;5.95;1.90;;;18.30;99.90;;;;;;5037443;28;20608;-67
2023/08/16 08:33:21;;;;;;;4.90;1.90;;;18.30;99.90;;;;;;5016116;28;21259;-67
2023/08/16 08:35:48;;;;;;;3.95;2.00;;;18.30;99.90;;;;;;5043260;28;20209;-67
2023/08/16 08:38:16;;;;;;;4.93;2.13;;;18.30;99.90;;;;;;5016315;28;20220;-67
2023/08/16 08:40:43;;;;;;;3.30;1.65;;;18.40;99.90;;;;;;5034932;28;20243;-67
2023/08/16 08:43:11;;;;;;;5.05;1.90;;;18.40;99.90;;;;;;4988327;28;20427;-67
2023/08/16 08:45:40;;;;;;;3.88;2.10;;;18.50;99.90;;;;;;5038499;28;20223;-67
2023/08/16 08:48:07;;;;;;;9.10;2.60;;;18.50;99.90;;;;;;5035902;28;20880;-67
2023/08/16 08:50:34;;;;;;;4.15;2.58;;;18.50;99.90;;;;;;5047391;28;20235;-67
2023/08/16 08:53:01;;;;;;;6.30;2.47;;;18.60;99.90;;;;;;5043731;28;20927;-67
2023/08/16 08:55:33;;;;;;;3.17;2.40;;;18.60;99.90;;;;;;5046502;28;20393;-67
2023/08/16 08:58:02;;;;;;;7.82;2.25;;;18.60;99.90;;;;;;5011638;28;20221;-67
2023/08/16 09:00:32;;;;;;;3.40;1.83;;;18.60;99.90;;;;;;5040628;28;20208;-67
2023/08/16 09:03:07;;;;;;;4.32;2.10;;;18.70;99.90;;;;;;5040618;28;20197;-67
2023/08/16 09:05:36;;;;;;;2.40;1.80;;;18.60;99.90;;;;;;5047094;28;20204;-67
2023/08/16 09:08:05;;;;;;;3.08;1.88;;;18.60;99.90;;;;;;5042057;28;20201;-67
2023/08/16 09:10:36;;;;;;;3.95;1.85;;;18.70;99.90;;;;;;5045739;28;20315;-67
2023/08/16 09:13:05;;;;;;;1.85;1.73;;;18.70;99.90;;;;;;5013423;28;20209;-67
2023/08/16 09:15:32;;;;;;;3.38;1.90;;;18.80;99.90;;;;;;5045317;28;20268;-67
2023/08/16 09:18:07;;;;;;;7.22;2.40;;;18.80;99.90;;;;;;5041909;28;20201;-67
2023/08/16 09:20:33;;;;;;;9.13;2.20;;;18.80;99.90;;;;;;5042729;28;20375;-67
2023/08/16 09:23:01;;;;;;;4.47;2.25;;;18.90;99.90;;;;;;5042029;28;20201;-67
2023/08/16 09:25:29;;;;;;;3.53;2.10;;;18.90;99.90;;;;;;5044029;28;20294;-67
2023/08/16 09:27:57;;;;;;;3.63;1.80;;;18.90;99.90;;;;;;5019443;28;20228;-67
2023/08/16 09:30:26;;;;;;;4.72;2.05;;;19.00;99.90;;;;;;5040026;28;20332;-67
2023/08/16 09:32:55;;;;;;;3.63;2.00;;;19.00;99.90;;;;;;5045390;28;20195;-67
2023/08/16 09:35:27;;;;;;;4.38;1.92;;;19.00;99.90;;;;;;5030262;28;20213;-67
2023/08/16 09:37:56;;;;;;;7.28;2.30;;;19.00;99.90;;;;;;5043569;28;20201;-67
2023/08/16 09:40:23;;;;;;;5.22;1.90;;;19.10;99.90;;;;;;5042649;28;20386;-67
2023/08/16 09:42:50;;;;;;;4.65;2.10;;;19.10;99.90;;;;;;5019801;28;20201;-67
2023/08/16 09:45:26;;;;;;;2.95;1.90;;;19.20;99.90;;;;;;5036237;28;20583;-67
2023/08/16 09:47:54;;;;;;;5.15;1.80;;;19.20;99.90;;;;;;5043234;28;20204;-67
2023/08/16 09:50:22;;;;;;;4.05;1.90;;;19.20;99.90;;;;;;5029219;28;20435;-67
2023/08/16 09:52:50;;;;;;;4.00;2.17;;;19.20;99.90;;;;;;5042391;28;20224;-67
2023/08/16 09:55:24;;;;;;;9.60;2.08;;;19.20;99.90;;;;;;5045428;28;20488;-67
2023/08/16 09:57:52;;;;;;;4.85;1.88;;;19.20;99.90;;;;;;5043516;28;20613;-68
2023/08/16 10:00:22;;;;;;;4.50;1.65;;;19.20;99.90;;;;;;5016901;28;20612;-67
2023/08/16 10:02:51;;;;;;;1.85;1.60;;;19.20;99.90;;;;;;5044107;28;20204;-67
2023/08/16 10:05:18;;;;;;;8.23;1.95;;;19.20;99.90;;;;;;5008966;28;20587;-67
2023/08/16 10:07:47;;;;;;;4.07;1.98;;;19.30;99.90;;;;;;5041350;28;20274;-67
2023/08/16 10:10:15;;;;;;;1.95;1.40;;;19.30;99.90;;;;;;5026474;28;20282;-67
2023/08/16 10:12:42;;;;;;;3.53;1.80;;;19.30;99.90;;;;;;5031885;28;20224;-67
2023/08/16 10:15:10;;;;;;;3.05;1.90;;;19.40;99.90;;;;;;5002094;28;20224;-67
2023/08/16 10:17:41;;;;;;;2.95;1.75;;;19.40;99.90;;;;;;5041092;28;22338;-67
2023/08/16 10:20:15;;;;;;;4.28;2.00;;;19.40;99.90;;;;;;5044963;28;20370;-67
2023/08/16 10:22:44;;;;;;;1.98;1.42;;;19.40;99.90;;;;;;5037486;28;20204;-67
2023/08/16 10:25:16;;;;;;;4.18;1.90;;;19.60;99.90;;;;;;5032959;28;20769;-67
2023/08/16 10:27:45;;;;;;;4.30;1.67;;;19.50;99.90;;;;;;5041133;28;20201;-67
2023/08/16 10:30:17;;;;;;;5.50;2.10;;;19.50;99.90;;;;;;5015975;28;20228;-67
2023/08/16 10:32:47;;;;;;;2.08;1.45;;;19.50;99.90;;;;;;5045093;28;20201;-67
2023/08/16 10:35:15;;;;;;;4.32;1.92;;;19.60;99.90;;;;;;5047138;28;20718;-67
2023/08/16 10:37:46;;;;;;;3.47;2.03;;;19.70;99.90;;;;;;5023608;28;20217;-67
2023/08/16 10:40:22;;;;;;;5.00;1.90;;;19.70;99.90;;;;;;5049674;28;20197;-67
2023/08/16 10:42:53;;;;;;;3.60;2.53;;;19.70;99.90;;;;;;5039919;28;20323;-67
2023/08/16 10:45:25;;;;;;;5.45;2.40;;;19.70;99.90;;;;;;5017386;28;20231;-67
2023/08/16 10:47:53;;;;;;;6.72;2.38;;;19.70;99.90;;;;;;5040822;28;20287;-67
2023/08/16 10:50:20;;;;;;;5.82;2.10;;;19.70;99.90;;;;;;5046724;28;20710;-67
2023/08/16 10:52:47;;;;;;;2.60;2.08;;;19.70;99.90;;;;;;5036594;28;20201;-67
2023/08/16 10:55:14;;;;;;;6.55;2.40;;;19.70;99.90;;;;;;5049209;28;20573;-67
2023/08/16 10:57:52;;;;;;;5.93;2.10;;;19.80;99.90;;;;;;5031585;28;20221;-68
2023/08/16 11:00:19;;;;;;;3.83;1.98;;;19.50;99.90;;;;;;5018711;28;20232;-67
2023/08/16 11:02:50;;;;;;;4.85;2.60;;;19.80;99.90;;;;;;5026738;28;20773;-67
2023/08/16 11:05:19;;;;;;;9.50;2.80;;;19.80;99.90;;;;;;5037285;28;20800;-67
2023/08/16 11:07:46;;;;;;;3.38;2.10;;;19.80;99.90;;;;;;5038873;28;20236;-67
2023/08/16 11:10:13;;;;;;;6.10;2.22;;;19.70;99.90;;;;;;5051046;28;20497;-67
2023/08/16 11:12:40;;;;;;;3.42;2.20;;;19.80;99.90;;;;;;5038397;28;20204;-67
2023/08/16 11:15:09;;;;;;;6.03;2.50;;;19.90;99.90;;;;;;5049360;28;20673;-67
2023/08/16 11:17:41;;;;;;;4.32;2.85;;;19.90;99.90;;;;;;5018884;28;20212;-67
2023/08/16 11:20:15;;;;;;;4.03;1.77;;;19.90;99.90;;;;;;5042758;28;20224;-67
2023/08/16 11:22:43;;;;;;;3.30;2.03;;;19.90;99.90;;;;;;5043183;28;20576;-67
2023/08/16 11:25:10;;;;;;;7.95;2.58;;;19.90;99.90;;;;;;5046477;28;20753;-67
2023/08/16 11:27:37;;;;;;;4.07;2.05;;;19.90;99.90;;;;;;5044568;28;20197;-67
2023/08/16 11:30:05;;;;;;;5.68;2.10;;;19.80;99.90;;;;;;5044262;28;20223;-67
2023/08/16 11:32:37;;;;;;;6.47;2.50;;;19.90;99.90;;;;;;5018536;28;20221;-67
2023/08/16 11:35:08;;;;;;;4.95;2.08;;;19.90;99.90;;;;;;5047573;28;20201;-67
2023/08/16 11:37:36;;;;;;;5.68;2.60;;;19.90;99.90;;;;;;5043557;28;20197;-67
2023/08/16 11:40:05;;;;;;;2.65;2.30;;;19.90;99.90;;;;;;5037791;28;20206;-67
2023/08/16 11:42:32;;;;;;;3.03;2.50;;;19.90;99.90;;;;;;5048210;28;20207;-66
2023/08/16 11:44:59;;;;;;;6.45;2.40;;;20.00;99.90;;;;;;5034105;28;20212;-67
2023/08/16 11:47:26;;;;;;;4.53;2.38;;;;;;;;;;5009758;28;20231;-67
2023/08/16 11:49:53;;;;;;;3.53;2.30;;;20.10;99.90;;;;;;5031488;28;20233;-67
2023/08/16 11:52:23;;;;;;;6.93;2.53;;;20.10;99.90;;;;;;5027664;28;20701;-67
2023/08/16 11:55:01;;;;;;;4.32;2.22;;;20.10;99.90;;;;;;5037814;28;20212;-67
2023/08/16 11:57:29;;;;;;;3.95;2.50;;;20.10;99.90;;;;;;5036094;28;20232;-67
2023/08/16 11:59:57;;;;;;;3.55;2.20;;;20.10;99.90;;;;;;5028641;28;20235;-67
2023/08/16 12:02:24;;;;;;;7.43;2.47;;;20.10;99.90;;;;;;5031534;28;20198;-67
2023/08/16 12:04:51;;;;;;;4.38;2.13;;;19.20;99.90;;;;;;5021051;28;20914;-67
2023/08/16 12:07:18;;;;;;;6.30;2.53;;;20.20;99.90;;;;;;5035707;28;20221;-67
2023/08/16 12:09:48;;;;;;;3.55;2.28;;;20.10;99.90;;;;;;5035333;28;20325;-67
2023/08/16 12:12:14;;;;;;;9.95;3.13;;;20.20;99.90;;;;;;5023508;28;20233;-66
2023/08/16 12:14:42;;;;;;;5.18;2.45;;;20.20;99.90;;;;;;5037508;28;20216;-67
2023/08/16 12:17:10;;;;;;;3.63;2.30;;;19.70;99.90;;;;;;5028915;28;20205;-67
2023/08/16 12:19:37;;;;;;;6.00;2.35;;;20.20;99.90;;;;;;5014241;28;20311;-67
2023/08/16 12:22:04;;;;;;;5.80;2.40;;;20.20;99.90;;;;;;5017461;28;20233;-67
2023/08/16 12:24:31;;;;;;;6.45;2.15;;;20.30;99.90;;;;;;5035758;28;20200;-67
2023/08/16 12:26:57;;;;;;;5.93;2.47;;;20.30;99.90;;;;;;5044668;28;20205;-67
2023/08/16 12:29:26;;;;;;;3.65;2.17;;;20.30;99.90;;;;;;5038308;28;20560;-67
2023/08/16 12:31:54;;;;;;;5.43;2.47;;;20.20;99.90;;;;;;5033669;28;20228;-67
2023/08/16 12:34:21;;;;;;;7.15;2.90;;;20.30;99.90;;;;;;5008473;28;21293;-67
2023/08/16 12:36:48;;;;;;;3.05;2.05;;;20.40;99.90;;;;;;5032396;28;20729;-67
2023/08/16 12:39:15;;;;;;;4.40;2.20;;;20.40;99.90;;;;;;5019609;28;20456;-67
2023/08/16 12:41:42;;;;;;;6.32;1.95;;;20.40;99.90;;;;;;5039640;28;20201;-67
2023/08/16 12:44:08;;;;;;;2.55;1.70;;;20.50;99.90;;;;;;5037260;28;20853;-67
2023/08/16 12:46:35;;;;;;;5.43;1.73;;;20.50;99.90;;;;;;5024125;28;20224;-66
2023/08/16 12:49:04;;;;;;;10.13;2.25;;;20.50;99.90;;;;;;5025349;28;21121;-67
2023/08/16 12:51:31;;;;;;;4.03;1.65;;;20.50;99.90;;;;;;5016768;28;20735;-66